Time;durP1;ratioP1;P1;durP2;ratioP2;P2;SDS_P1;SDS_P2;PMS_P1;PMS_P2;Temp;Humidity;BMP_temperature;BMP_pressure;BME280_temperature;BME280_humidity;BME280_pressure;Samples;Min_cycle;Max_cycle;Signal;HPM_P1;HPM_P2
2022/11/14 00:02:32;;;;;;;50.33;16.77;;;;;;;5.34;100.00;101451.06;6021275;28;20061;-68
2022/11/14 00:05:27;;;;;;;59.95;19.52;;;;;;;5.34;100.00;101450.22;6021917;28;20782;-67
2022/11/14 00:08:26;;;;;;;50.23;18.80;;;;;;;5.32;100.00;101450.31;6022011;28;20041;-68
2022/11/14 00:11:21;;;;;;;51.38;17.98;;;;;;;5.35;100.00;101459.81;6022409;28;20270;-68
2022/11/14 00:14:17;;;;;;;56.20;19.27;;;;;;;5.29;100.00;101447.88;6022466;28;20053;-68
2022/11/14 00:17:12;;;;;;;51.47;18.80;;;;;;;5.37;100.00;101461.41;6021335;28;20266;-68
2022/11/14 00:20:09;;;;;;;54.17;19.87;;;;;;;5.28;100.00;101438.28;6021338;28;20060;-68
2022/11/14 00:23:04;;;;;;;58.25;20.15;;;;;;;5.27;100.00;101425.25;6021672;28;20037;-67
2022/11/14 00:26:00;;;;;;;63.20;19.67;;;;;;;5.35;100.00;101439.59;6021941;28;20034;-69
2022/11/14 00:28:55;;;;;;;50.07;18.87;;;;;;;5.37;100.00;101442.97;6021455;28;20277;-69
2022/11/14 00:31:50;;;;;;;52.93;19.17;;;;;;;5.30;100.00;101431.13;6020698;28;20062;-68
2022/11/14 00:34:46;;;;;;;60.83;19.53;;;;;;;5.35;100.00;101431.69;6021585;28;20273;-69
2022/11/14 00:37:41;;;;;;;55.73;19.53;;;;;;;5.34;100.00;101437.91;6021120;28;20113;-68
2022/11/14 00:40:36;;;;;;;53.00;19.50;;;;;;;5.33;100.00;101436.22;6020943;28;20101;-68
2022/11/14 00:43:31;;;;;;;60.70;21.97;;;;;;;5.26;100.00;101424.41;6021567;28;20762;-67
2022/11/14 00:46:27;;;;;;;53.43;19.53;;;;;;;5.26;100.00;101429.66;6021068;28;20061;-69
2022/11/14 00:49:22;;;;;;;48.80;16.53;;;;;;;5.17;100.00;101416.22;6021293;28;20442;-69
2022/11/14 00:52:17;;;;;;;57.47;20.73;;;;;;;5.09;100.00;101415.84;6020756;28;20276;-68
2022/11/14 00:55:13;;;;;;;65.27;21.53;;;;;;;5.12;100.00;101426.16;6024618;28;20076;-69
2022/11/14 00:58:08;;;;;;;57.47;20.00;;;;;;;5.00;100.00;101411.16;6025830;28;20395;-67
2022/11/14 01:01:04;;;;;;;58.92;22.38;;;;;;;4.99;100.00;101410.31;6025047;28;20381;-68
2022/11/14 01:03:59;;;;;;;55.17;19.37;;;;;;;5.05;100.00;101414.34;6026028;28;20034;-68
2022/11/14 01:06:54;;;;;;;55.53;20.48;;;;;;;5.03;100.00;101414.44;6024818;28;20457;-68
2022/11/14 01:09:50;;;;;;;53.20;18.73;;;;;;;5.02;100.00;101414.53;6025987;28;20041;-68
2022/11/14 01:12:45;;;;;;;54.77;19.37;;;;;;;4.98;100.00;101402.50;6025199;28;20053;-69
2022/11/14 01:15:42;;;;;;;56.80;19.47;;;;;;;5.02;100.00;101414.53;6025620;28;20038;-68
2022/11/14 01:18:38;;;;;;;48.03;18.75;;;;;;;4.93;100.00;101405.41;6025736;28;20767;-69
2022/11/14 01:21:35;;;;;;;54.78;19.00;;;;;;;4.96;100.00;101409.66;6024542;28;20038;-68
2022/11/14 01:24:33;;;;;;;46.95;17.25;;;;;;;4.87;100.00;101394.44;6025395;28;20057;-69
2022/11/14 01:27:29;;;;;;;55.10;19.50;;;;;;;4.86;100.00;101403.25;6025080;28;20130;-68
2022/11/14 01:30:25;;;;;;;53.60;19.25;;;;;;;4.81;100.00;101398.25;6024379;28;20460;-68
2022/11/14 01:33:20;;;;;;;51.97;18.83;;;;;;;4.87;100.00;101403.16;6025409;28;20038;-68
2022/11/14 01:36:16;;;;;;;53.90;18.73;;;;;;;4.80;100.00;101388.72;6024886;28;20042;-68
2022/11/14 01:39:11;;;;;;;52.53;17.15;;;;;;;4.82;100.00;101390.31;6025383;28;20363;-68
2022/11/14 01:42:06;;;;;;;54.43;18.57;;;;;;;4.85;100.00;101385.81;6024744;28;20062;-69
2022/11/14 01:45:40;;;;;;;54.30;18.63;;;;;;;4.93;100.00;101387.03;6024805;28;20357;-68
2022/11/14 01:48:44;;;;;;;47.58;18.58;;;;;;;4.91;100.00;101386.28;6024310;28;20545;-68
2022/11/14 01:52:14;;;;;;;54.17;19.02;;;;;;;4.93;100.00;101383.56;6023079;28;20034;-69
2022/11/14 01:55:10;;;;;;;54.28;19.50;;;;;;;4.86;100.00;101359.44;6012640;28;20050;-68
2022/11/14 01:58:05;;;;;;;54.72;18.60;;;;;;;4.92;100.00;101376.63;6024640;28;20037;-68
2022/11/14 02:01:01;;;;;;;55.83;20.03;;;;;;;4.91;100.00;101354.75;6022672;28;20057;-68
2022/11/14 02:03:59;;;;;;;53.25;18.58;;;;;;;4.85;100.00;101349.03;6023605;28;20286;-67
2022/11/14 02:06:56;;;;;;;55.90;19.90;;;;;;;4.86;100.00;101354.19;6024795;28;20093;-68
2022/11/14 02:09:52;;;;;;;55.15;18.45;;;;;;;4.91;100.00;101351.28;6024638;28;20043;-69
2022/11/14 02:12:48;;;;;;;53.75;17.77;;;;;;;4.87;100.00;101336.63;6022598;28;20034;-68
2022/11/14 02:15:43;;;;;;;57.10;18.40;;;;;;;4.91;100.00;101343.41;6022802;28;20042;-68
2022/11/14 02:18:39;;;;;;;59.43;19.73;;;;;;;4.87;100.00;101347.13;6024385;28;20053;-68
2022/11/14 02:21:34;;;;;;;47.17;17.77;;;;;;;4.89;100.00;101340.03;6023335;28;20068;-68
2022/11/14 02:24:29;;;;;;;49.17;17.23;;;;;;;4.93;100.00;101345.00;6023618;28;20385;-68
2022/11/14 02:27:25;;;;;;;55.37;18.17;;;;;;;4.95;100.00;101342.25;6020358;28;20289;-68
2022/11/14 02:30:22;;;;;;;54.55;18.90;;;;;;;4.94;100.00;101337.94;6018888;28;20101;-69
2022/11/14 02:33:17;;;;;;;60.58;19.08;;;;;;;5.01;100.00;101336.63;6023503;28;20137;-68
2022/11/14 02:36:12;;;;;;;57.97;21.05;;;;;;;4.99;100.00;101335.88;6015345;28;20611;-68
2022/11/14 02:39:08;;;;;;;51.27;17.83;;;;;;;5.01;100.00;101339.25;6023561;28;20066;-68
2022/11/14 02:42:03;;;;;;;54.77;18.03;;;;;;;4.97;100.00;101322.00;6022905;28;20382;-68
2022/11/14 02:44:58;;;;;;;53.47;19.07;;;;;;;4.97;100.00;101320.22;6024563;28;20030;-68
2022/11/14 02:47:54;;;;;;;59.57;20.23;;;;;;;4.98;100.00;101318.41;6023009;28;20274;-67
2022/11/14 02:50:49;;;;;;;57.23;19.70;;;;;;;5.07;100.00;101331.84;6022786;28;20022;-68
2022/11/14 02:53:44;;;;;;;60.30;21.47;;;;;;;5.02;100.00;101327.81;6023348;28;20482;-68
2022/11/14 02:56:40;;;;;;;54.10;17.80;;;;;;;5.00;100.00;101321.81;6023399;28;20549;-68
2022/11/14 02:59:35;;;;;;;60.90;19.67;;;;;;;5.12;100.00;101331.53;6023252;28;20047;-68
2022/11/14 03:02:30;;;;;;;58.10;19.87;;;;;;;5.05;100.00;101315.34;6022275;28;20312;-68
2022/11/14 03:05:26;;;;;;;60.00;20.98;;;;;;;5.05;100.00;101314.47;6023289;28;20504;-68
2022/11/14 03:08:21;;;;;;;55.37;18.20;;;;;;;5.09;100.00;101313.34;6023209;28;20085;-69
2022/11/14 03:11:16;;;;;;;54.27;19.53;;;;;;;5.05;100.00;101302.19;6022563;28;20146;-68
2022/11/14 03:14:11;;;;;;;60.47;20.23;;;;;;;5.07;100.00;101308.19;6023025;28;20141;-68
2022/11/14 03:17:07;;;;;;;54.10;18.53;;;;;;;5.14;100.00;101311.25;6022377;28;20273;-68
2022/11/14 03:20:03;;;;;;;57.33;18.10;;;;;;;5.00;100.00;101288.47;6022623;28;20030;-68
2022/11/14 03:22:58;;;;;;;59.13;18.17;;;;;;;5.17;100.00;101316.31;6022446;28;20026;-68
2022/11/14 03:25:53;;;;;;;54.03;19.57;;;;;;;5.16;100.00;101309.41;6022921;28;20113;-68
2022/11/14 03:28:48;;;;;;;60.13;19.40;;;;;;;5.08;100.00;101298.53;6022090;28;20042;-68
2022/11/14 03:31:44;;;;;;;62.37;19.47;;;;;;;5.17;100.00;101306.66;6022122;28;20033;-68
2022/11/14 03:34:39;;;;;;;54.87;19.00;;;;;;;5.12;100.00;101284.22;6022553;28;20084;-68
2022/11/14 03:37:34;;;;;;;63.17;19.07;;;;;;;5.14;100.00;101295.47;6021883;28;20053;-68
2022/11/14 03:40:30;;;;;;;61.73;18.07;;;;;;;5.18;100.00;101286.47;6022069;28;20026;-68
2022/11/14 03:43:28;;;;;;;63.70;20.27;;;;;;;5.19;100.00;101296.06;6022468;28;20390;-69
2022/11/14 03:46:23;;;;;;;70.10;21.08;;;;;;;5.20;100.00;101276.69;6021639;28;20046;-67
2022/11/14 03:49:19;;;;;;;62.73;20.23;;;;;;;5.26;100.00;101294.72;6022508;28;20069;-68
2022/11/14 03:52:14;;;;;;;64.57;19.73;;;;;;;5.25;100.00;101279.88;6022508;28;20118;-68
2022/11/14 03:55:09;;;;;;;61.53;19.57;;;;;;;5.25;100.00;101274.63;6022845;28;20798;-67
2022/11/14 03:58:05;;;;;;;69.27;19.30;;;;;;;5.29;100.00;101281.38;6021993;28;20088;-68
2022/11/14 04:01:00;;;;;;;62.30;21.27;;;;;;;5.29;100.00;101262.97;6021964;28;20034;-68
2022/11/14 04:03:55;;;;;;;65.73;20.23;;;;;;;5.21;100.00;101238.97;6022642;28;20042;-68
2022/11/14 04:06:50;;;;;;;65.73;20.00;;;;;;;5.27;100.00;101256.97;6021809;28;20265;-68
2022/11/14 04:09:46;;;;;;;70.43;23.30;;;;;;;5.15;100.00;101232.31;6021999;28;20501;-67
2022/11/14 04:12:47;;;;;;;68.67;20.70;;;;;;;5.24;100.00;101247.50;6020444;28;20149;-68
2022/11/14 04:15:42;;;;;;;67.57;21.00;;;;;;;5.14;100.00;101224.50;6021897;28;20361;-68
2022/11/14 04:18:38;;;;;;;63.07;20.27;;;;;;;5.16;100.00;101217.41;6021584;28;20061;-67
2022/11/14 04:21:33;;;;;;;52.70;19.43;;;;;;;5.27;100.00;101241.19;6021296;28;20268;-68
2022/11/14 04:24:29;;;;;;;50.40;19.33;;;;;;;5.21;100.00;101234.56;6021464;28;20293;-67
2022/11/14 04:27:24;;;;;;;58.22;19.50;;;;;;;5.22;100.00;101238.00;6013885;28;20030;-68
2022/11/14 04:30:19;;;;;;;62.83;19.20;;;;;;;5.26;100.00;101250.03;6021951;28;20034;-68
2022/11/14 04:33:14;;;;;;;69.50;21.87;;;;;;;5.18;100.00;101240.00;6021884;28;20561;-68
2022/11/14 04:36:10;;;;;;;69.83;21.60;;;;;;;5.15;100.00;101226.22;6022368;28;20037;-68
2022/11/14 04:39:05;;;;;;;67.57;20.67;;;;;;;5.22;100.00;101238.00;6021930;28;20030;-68
2022/11/14 04:42:01;;;;;;;59.15;20.20;;;;;;;5.14;100.00;101220.09;6018951;28;20372;-67
2022/11/14 04:44:56;;;;;;;63.20;21.08;;;;;;;5.14;100.00;101209.59;6021767;28;20045;-68
2022/11/14 04:47:52;;;;;;;63.53;19.33;;;;;;;5.14;100.00;101206.09;6021457;28;20041;-67
2022/11/14 04:50:47;;;;;;;65.87;19.40;;;;;;;5.10;100.00;101202.00;6021566;28;20081;-67
2022/11/14 04:53:42;;;;;;;62.17;19.77;;;;;;;5.11;100.00;101214.22;6022172;28;20093;-68
2022/11/14 04:56:37;;;;;;;67.60;21.60;;;;;;;5.20;100.00;101219.72;6021692;28;20062;-68
2022/11/14 04:59:33;;;;;;;60.47;19.67;;;;;;;5.10;100.00;101199.38;6022156;28;20053;-67
2022/11/14 05:02:31;;;;;;;59.63;18.13;;;;;;;5.23;100.00;101229.19;6020971;28;20122;-69
2022/11/14 05:05:27;;;;;;;69.05;21.33;;;;;;;5.17;100.00;101209.41;6021986;28;20272;-68
2022/11/14 05:08:23;;;;;;;61.08;18.48;;;;;;;5.23;100.00;101203.75;6018957;28;20070;-68
2022/11/14 05:11:19;;;;;;;64.72;20.52;;;;;;;5.18;100.00;101197.09;6008945;28;20065;-68
2022/11/14 05:14:15;;;;;;;69.78;21.05;;;;;;;5.20;100.00;101200.47;6006917;28;20494;-67
2022/11/14 05:17:10;;;;;;;67.68;20.95;;;;;;;5.12;100.00;101184.34;6016966;28;20022;-67
2022/11/14 05:20:06;;;;;;;62.20;19.57;;;;;;;5.20;100.00;101196.06;6022171;28;20034;-67
2022/11/14 05:23:01;;;;;;;61.08;19.50;;;;;;;5.22;100.00;101193.31;6014139;28;20023;-67
2022/11/14 05:26:01;;;;;;;73.68;23.50;;;;;;;5.15;100.00;101189.41;6021100;28;20037;-67
2022/11/14 05:28:56;;;;;;;58.22;19.80;;;;;;;5.21;100.00;101200.38;6020817;28;20458;-68
2022/11/14 05:31:52;;;;;;;61.50;19.87;;;;;;;5.23;100.00;101202.91;6020394;28;20029;-67
2022/11/14 05:34:47;;;;;;;62.15;20.45;;;;;;;5.22;100.00;101196.78;6021001;28;20761;-68
2022/11/14 05:37:43;;;;;;;60.28;18.02;;;;;;;5.13;100.00;101186.91;6021137;28;20034;-67
2022/11/14 05:40:38;;;;;;;63.40;19.83;;;;;;;5.23;100.00;101208.16;6022675;28;20026;-67
2022/11/14 05:43:34;;;;;;;65.03;21.37;;;;;;;5.18;100.00;101195.31;6019394;28;20038;-67
2022/11/14 05:46:29;;;;;;;64.38;18.20;;;;;;;5.25;100.00;101199.22;6024177;28;20352;-67
2022/11/14 05:49:25;;;;;;;60.90;19.13;;;;;;;5.21;100.00;101199.53;6025224;28;20113;-68
2022/11/14 05:52:20;;;;;;;63.80;20.13;;;;;;;5.21;100.00;101202.16;6024123;28;20326;-67
2022/11/14 05:55:15;;;;;;;60.00;22.53;;;;;;;5.04;100.00;101191.88;6023842;28;20042;-68
2022/11/14 05:58:11;;;;;;;61.27;19.13;;;;;;;5.11;100.00;101195.81;6024770;28;20265;-68
2022/11/14 06:01:13;;;;;;;62.60;20.20;;;;;;;5.15;100.00;101203.41;6023652;28;20038;-67
2022/11/14 06:04:08;;;;;;;48.38;16.70;;;;;;;5.19;100.00;101198.78;6024846;28;20038;-67
2022/11/14 06:07:03;;;;;;;56.37;20.03;;;;;;;5.20;100.00;101203.09;6024758;28;20405;-68
2022/11/14 06:09:59;;;;;;;62.53;20.83;;;;;;;5.20;100.00;101208.34;6024626;28;20072;-66
2022/11/14 06:12:54;;;;;;;62.23;20.03;;;;;;;5.05;100.00;101188.34;6023776;28;20045;-68
2022/11/14 06:15:49;;;;;;;58.87;19.63;;;;;;;5.10;100.00;101187.09;6024254;28;20030;-67
2022/11/14 06:18:45;;;;;;;55.42;19.80;;;;;;;4.97;100.00;101173.06;6024678;28;20132;-67
2022/11/14 06:21:40;;;;;;;66.45;20.42;;;;;;;5.03;100.00;101182.34;6023538;28;20046;-67
2022/11/14 06:24:36;;;;;;;66.83;19.20;;;;;;;5.02;100.00;101172.75;6024234;28;20042;-67
2022/11/14 06:27:31;;;;;;;63.17;20.83;;;;;;;5.13;100.00;101179.00;6024349;28;20109;-67
2022/11/14 06:30:26;;;;;;;54.70;18.48;;;;;;;5.12;100.00;101181.72;6023177;28;20038;-67
2022/11/14 06:33:22;;;;;;;62.27;22.57;;;;;;;5.09;100.00;101181.91;6024180;28;20026;-67
2022/11/14 06:36:17;;;;;;;55.37;18.63;;;;;;;5.11;100.00;101182.69;6023088;28;21522;-68
2022/11/14 06:39:12;;;;;;;69.30;20.25;;;;;;;5.01;100.00;101171.06;6024035;28;20034;-67
2022/11/14 06:42:08;;;;;;;68.77;19.33;;;;;;;4.98;100.00;101166.00;6023462;28;20432;-69
2022/11/14 06:45:03;;;;;;;67.07;21.53;;;;;;;5.05;100.00;101178.66;6023626;28;20277;-69
2022/11/14 06:47:59;;;;;;;58.78;20.55;;;;;;;5.00;100.00;101179.91;6023595;28;20054;-67
2022/11/14 06:50:55;;;;;;;61.58;22.63;;;;;;;4.88;100.00;101172.78;6022216;28;20039;-69
2022/11/14 06:53:51;;;;;;;63.50;22.13;;;;;;;4.93;100.00;101189.09;6023571;28;20042;-67
2022/11/14 06:56:46;;;;;;;59.70;19.25;;;;;;;4.94;100.00;101189.03;6023122;28;20037;-67
2022/11/14 06:59:41;;;;;;;60.55;21.38;;;;;;;4.98;100.00;101187.03;6023278;28;20034;-68
2022/11/14 07:02:37;;;;;;;68.30;20.33;;;;;;;4.88;100.00;101168.38;6021329;28;20334;-68
2022/11/14 07:05:32;;;;;;;58.70;17.97;;;;;;;4.95;100.00;101177.56;6023463;28;20055;-68
2022/11/14 07:08:28;;;;;;;67.30;21.20;;;;;;;4.96;100.00;101183.66;6022698;28;20097;-67
2022/11/14 07:11:27;;;;;;;59.90;22.85;;;;;;;4.93;100.00;101183.84;6021625;28;20030;-68
2022/11/14 07:14:22;;;;;;;69.38;23.23;;;;;;;4.77;100.00;101174.34;6022358;28;20040;-67
2022/11/14 07:17:18;;;;;;;68.43;21.53;;;;;;;4.88;100.00;101189.41;6022420;28;20030;-67
2022/11/14 07:20:14;;;;;;;61.33;20.13;;;;;;;4.88;100.00;101175.41;6022413;28;20026;-67
2022/11/14 07:23:11;;;;;;;64.30;21.27;;;;;;;4.93;100.00;101173.34;6023159;28;20285;-68
2022/11/14 07:26:09;;;;;;;64.88;20.27;;;;;;;4.87;100.00;101174.56;6023153;28;20078;-69
2022/11/14 07:29:04;;;;;;;56.05;17.08;;;;;;;4.91;100.00;101165.56;6022937;28;20070;-67
2022/11/14 07:32:01;;;;;;;58.07;17.33;;;;;;;4.90;100.00;101155.13;6022392;28;20030;-66
2022/11/14 07:34:56;;;;;;;59.90;21.20;;;;;;;4.94;100.00;101173.25;6021408;28;21073;-67
2022/11/14 07:37:52;;;;;;;51.07;17.97;;;;;;;4.88;100.00;101160.50;6023374;28;20097;-67
2022/11/14 07:40:58;;;;;;;56.92;19.38;;;;;;;4.98;100.00;101184.38;6022307;28;20022;-67
2022/11/14 07:43:53;;;;;;;54.92;18.25;;;;;;;4.97;100.00;101190.59;6021927;28;20142;-68
2022/11/14 07:46:50;;;;;;;49.17;16.97;;;;;;;4.96;100.00;101186.28;6022398;28;20560;-67
2022/11/14 07:49:46;;;;;;;61.17;19.88;;;;;;;5.05;100.00;101197.06;6022359;28;20276;-67
2022/11/14 07:52:41;;;;;;;54.03;17.30;;;;;;;4.97;100.00;101178.31;6024286;28;20030;-68
2022/11/14 07:55:37;;;;;;;63.13;18.83;;;;;;;5.08;100.00;101199.47;6022806;28;20812;-67
2022/11/14 07:58:34;;;;;;;51.97;18.75;;;;;;;5.03;100.00;101182.34;6022583;28;20030;-67
2022/11/14 08:01:31;;;;;;;57.42;17.70;;;;;;;5.15;100.00;101192.03;6021769;28;20127;-67
2022/11/14 08:04:26;;;;;;;57.58;17.65;;;;;;;5.14;100.00;101182.44;6022124;28;20053;-68
2022/11/14 08:07:23;;;;;;;58.00;18.30;;;;;;;5.16;100.00;101175.34;6022110;28;20474;-67
2022/11/14 08:10:19;;;;;;;55.30;19.23;;;;;;;5.04;100.00;101171.72;6020932;28;20046;-67
2022/11/14 08:13:14;;;;;;;55.33;18.35;;;;;;;5.15;100.00;101179.75;6021813;28;20105;-68
2022/11/14 08:16:10;;;;;;;46.23;16.60;;;;;;;5.13;100.00;101167.66;6020994;28;20044;-68
2022/11/14 08:19:05;;;;;;;55.10;19.77;;;;;;;5.11;100.00;101153.78;6021946;28;20262;-68
2022/11/14 08:22:00;;;;;;;54.92;20.48;;;;;;;5.19;100.00;101159.38;6021326;28;20069;-67
2022/11/14 08:24:56;;;;;;;58.30;19.03;;;;;;;5.21;100.00;101154.84;6022041;28;20766;-68
2022/11/14 08:27:52;;;;;;;47.40;17.40;;;;;;;5.36;100.00;101172.22;6017032;28;20057;-67
2022/11/14 08:30:48;;;;;;;48.22;16.73;;;;;;;5.41;100.00;101164.88;6021313;28;20112;-67
2022/11/14 08:33:43;;;;;;;48.13;16.53;;;;;;;5.34;100.00;101150.44;6021985;28;20117;-68
2022/11/14 08:36:39;;;;;;;55.88;18.05;;;;;;;5.43;100.00;101162.16;6021504;28;20041;-67
2022/11/14 08:39:34;;;;;;;55.63;18.97;;;;;;;5.38;100.00;101159.84;6021785;28;20037;-68
2022/11/14 08:42:30;;;;;;;56.47;21.23;;;;;;;5.44;100.00;101164.66;6021144;28;20278;-67
2022/11/14 08:45:25;;;;;;;51.60;17.95;;;;;;;5.44;100.00;101175.19;6021583;28;20105;-68
2022/11/14 08:48:21;;;;;;;63.27;22.50;;;;;;;5.42;100.00;101156.03;6021844;28;20116;-67
2022/11/14 08:51:17;;;;;;;64.50;22.50;;;;;;;5.44;100.00;101164.66;6018567;28;20277;-67
2022/11/14 08:54:12;;;;;;;60.37;20.10;;;;;;;5.43;100.00;101146.38;6021648;28;20034;-68
2022/11/14 08:57:07;;;;;;;48.37;18.93;;;;;;;5.53;100.00;101143.03;6021904;28;20030;-68
2022/11/14 09:00:03;;;;;;;51.87;18.10;;;;;;;5.50;100.00;101135.34;6015891;28;20034;-67
2022/11/14 09:02:58;;;;;;;53.75;18.02;;;;;;;5.63;100.00;101137.97;6019468;28;20034;-68
2022/11/14 09:05:53;;;;;;;51.83;21.60;;;;;;;5.64;100.00;101135.25;6021563;28;20043;-68
2022/11/14 09:08:49;;;;;;;56.75;21.45;;;;;;;5.63;100.00;101144.06;6021403;28;20026;-67
2022/11/14 09:11:44;;;;;;;60.73;18.87;;;;;;;5.75;100.00;101143.25;6021242;28;20434;-67
2022/11/14 09:14:39;;;;;;;52.83;18.57;;;;;;;5.68;100.00;101141.97;6013208;28;20066;-66
2022/11/14 09:17:35;;;;;;;54.63;18.83;;;;;;;5.67;100.00;101148.19;6025658;28;20054;-69
2022/11/14 09:20:30;;;;;;;61.50;21.77;;;;;;;5.65;100.00;101144.00;6025480;28;20046;-68
2022/11/14 09:23:25;;;;;;;60.77;20.73;;;;;;;5.62;100.00;101152.94;6025411;28;20464;-67
2022/11/14 09:26:21;;;;;;;59.93;19.67;;;;;;;5.52;100.00;101148.41;6024485;28;20041;-67
2022/11/14 09:29:17;;;;;;;56.53;20.23;;;;;;;5.59;100.00;101153.13;6024659;28;20266;-68
2022/11/14 09:32:13;;;;;;;53.42;18.63;;;;;;;5.51;100.00;101134.41;6024875;28;20045;-67
2022/11/14 09:35:08;;;;;;;53.80;20.88;;;;;;;5.55;100.00;101130.59;6025777;28;20038;-67
2022/11/14 09:38:07;;;;;;;45.25;17.65;;;;;;;5.58;100.00;101125.13;6025006;28;20494;-68
2022/11/14 09:41:23;;;;;;;54.03;17.35;;;;;;;5.69;100.00;101133.13;6024822;28;20045;-67
2022/11/14 09:44:46;;;;;;;59.67;19.80;;;;;;;5.68;100.00;101141.16;6024417;28;20505;-67
2022/11/14 09:47:49;;;;;;;47.80;16.60;;;;;;;5.69;100.00;101103.34;6025156;28;20502;-67
2022/11/14 09:51:02;;;;;;;49.03;17.45;;;;;;;5.80;100.00;101113.97;6023608;28;20049;-67
2022/11/14 09:54:23;;;;;;;51.70;18.17;;;;;;;5.88;100.00;101112.53;6016174;28;20510;-68
2022/11/14 09:57:19;;;;;;;49.70;17.60;;;;;;;5.92;100.00;101065.81;6025191;28;20118;-67
2022/11/14 10:00:19;;;;;;;49.65;19.00;;;;;;;5.96;100.00;101089.16;6024507;28;20120;-66
2022/11/14 10:04:02;;;;;;;50.60;19.50;;;;;;;5.93;100.00;101055.16;6010887;28;20039;-67
2022/11/14 10:07:05;;;;;;;48.05;16.95;;;;;;;6.05;100.00;101057.88;6019391;28;20054;-67
2022/11/14 10:10:13;;;;;;;45.63;16.70;;;;;;;5.97;100.00;101055.78;6023496;28;20094;-66
2022/11/14 10:13:27;;;;;;;45.65;16.77;;;;;;;6.01;100.00;101059.88;6023012;28;20038;-66
2022/11/14 10:16:31;;;;;;;48.50;18.00;;;;;;;5.90;100.00;101060.63;6023158;28;20030;-67
2022/11/14 10:20:05;;;;;;;50.55;19.80;;;;;;;5.89;100.00;101066.88;6024187;28;20099;-67
2022/11/14 10:23:06;;;;;;;50.70;19.10;;;;;;;5.96;100.00;101069.88;6011853;28;20050;-67
2022/11/14 10:26:14;;;;;;;51.90;19.73;;;;;;;5.89;100.00;101087.91;6021622;28;20074;-66
2022/11/14 10:29:34;;;;;;;52.97;19.27;;;;;;;5.77;100.00;101078.19;6023805;28;20126;-66
2022/11/14 10:32:47;;;;;;;56.75;20.05;;;;;;;5.93;100.00;101083.25;6024051;28;20033;-67
2022/11/14 10:35:46;;;;;;;42.30;18.75;;;;;;;5.99;100.00;101078.41;6011795;28;20042;-67
2022/11/14 10:38:49;;;;;;;49.28;16.75;;;;;;;6.04;100.00;101093.03;6024663;28;20142;-67
2022/11/14 10:41:46;;;;;;;42.65;15.45;;;;;;;5.81;100.00;101069.16;6023779;28;20394;-67
2022/11/14 10:44:49;;;;;;;44.60;17.92;;;;;;;5.66;100.00;101069.34;6021428;28;20493;-67
2022/11/14 10:47:57;;;;;;;46.85;18.02;;;;;;;5.75;100.00;101074.84;6014895;28;20117;-66
2022/11/14 10:51:11;;;;;;;46.78;16.65;;;;;;;5.83;100.00;101090.94;6022177;28;20022;-68
2022/11/14 10:54:16;;;;;;;48.70;19.10;;;;;;;5.97;100.00;101066.31;6023079;28;20049;-68
2022/11/14 10:57:20;;;;;;;47.78;18.10;;;;;;;6.18;100.00;101070.06;6012596;28;20178;-66
2022/11/14 11:00:21;;;;;;;41.15;16.42;;;;;;;6.17;99.72;101096.50;6010128;28;20031;-66
2022/11/14 11:03:17;;;;;;;47.58;17.83;;;;;;;5.91;100.00;101070.22;6023957;28;20041;-67
2022/11/14 11:06:26;;;;;;;46.00;20.07;;;;;;;6.06;100.00;101078.00;6019451;28;20058;-67
2022/11/14 11:12:51;;;;;;;53.60;19.85;;;;;;;6.01;100.00;101056.44;6023091;28;20173;-66
2022/11/14 11:15:54;;;;;;;44.15;17.20;;;;;;;5.94;100.00;101048.97;6023342;28;20510;-68
2022/11/14 11:18:49;;;;;;;45.90;17.35;;;;;;;6.13;100.00;101053.75;6022071;28;20035;-67
2022/11/14 11:21:50;;;;;;;50.80;18.67;;;;;;;6.15;99.64;101069.44;6022584;28;20034;-68
2022/11/14 11:24:45;;;;;;;38.40;16.50;;;;;;;6.11;99.73;101071.47;6022441;28;20789;-67
2022/11/14 11:27:40;;;;;;;49.50;16.43;;;;;;;6.14;99.93;101062.50;6023236;28;20030;-67
2022/11/14 11:30:36;;;;;;;46.63;18.13;;;;;;;6.08;99.72;101065.56;6021985;28;20121;-67
2022/11/14 11:33:34;;;;;;;42.30;19.15;;;;;;;5.93;100.00;101062.22;6021727;28;20277;-67
2022/11/14 11:36:31;;;;;;;44.75;17.25;;;;;;;5.85;100.00;101070.66;6022701;28;20030;-67
2022/11/14 11:39:32;;;;;;;50.30;19.67;;;;;;;5.72;100.00;101054.00;6020519;28;20035;-68
2022/11/14 11:42:39;;;;;;;49.88;20.77;;;;;;;5.78;100.00;101072.00;6021533;28;20033;-69
2022/11/14 11:45:35;;;;;;;;;;;;;;;5.93;100.00;101057.78;6023139;28;20026;-68
2022/11/14 11:48:37;;;;;;;43.07;18.10;;;;;;;6.16;100.00;101050.06;6024465;28;19976;-68
2022/11/14 11:51:39;;;;;;;37.72;15.73;;;;;;;6.29;100.00;101033.28;6021999;28;20398;-69
2022/11/14 11:54:55;;;;;;;36.95;14.50;;;;;;;6.29;99.28;101037.69;6020048;28;20108;-67
2022/11/14 11:58:01;;;;;;;39.60;14.77;;;;;;;6.46;99.33;101061.03;6018672;28;20105;-68
2022/11/14 12:00:57;;;;;;;44.63;16.13;;;;;;;6.49;98.66;101060.81;6021472;28;20034;-67
2022/11/14 12:03:53;;;;;;;43.75;19.52;;;;;;;6.50;98.93;101041.41;6021570;28;20038;-69
2022/11/14 12:07:03;;;;;;;36.78;15.48;;;;;;;6.81;98.52;101043.47;6022300;28;20037;-68
2022/11/14 12:10:02;;;;;;;44.17;16.60;;;;;;;7.02;96.75;101039.22;6020548;28;20037;-68
2022/11/14 12:13:03;;;;;;;37.97;15.80;;;;;;;7.31;96.69;101044.09;6019597;28;20125;-68
2022/11/14 12:16:22;;;;;;;38.05;17.98;;;;;;;7.19;94.88;101030.88;6020947;28;20042;-68
2022/11/14 12:19:33;;;;;;;36.83;15.00;;;;;;;6.98;95.37;101032.50;6021052;28;20033;-68
2022/11/14 12:22:50;;;;;;;40.22;16.42;;;;;;;6.74;96.48;101044.84;6019679;28;20034;-68
2022/11/14 12:26:05;;;;;;;46.97;17.42;;;;;;;6.68;97.67;101053.25;6021416;28;20065;-67
2022/11/14 12:29:23;;;;;;;46.85;17.95;;;;;;;6.69;98.66;101059.31;6020155;28;20032;-67
2022/11/14 12:32:31;;;;;;;42.78;18.40;;;;;;;6.84;97.59;101048.50;6019868;28;20045;-67
2022/11/14 12:35:29;;;;;;;42.65;16.20;;;;;;;6.89;97.62;101032.34;6021988;28;20031;-68
2022/11/14 12:38:28;;;;;;;39.03;16.77;;;;;;;6.77;97.54;101020.91;6021097;28;20097;-68
2022/11/14 12:41:26;;;;;;;42.67;17.45;;;;;;;6.85;97.81;101020.38;6019814;28;20058;-68
2022/11/14 12:44:27;;;;;;;42.20;16.98;;;;;;;6.87;97.84;101039.53;6020365;28;20030;-68
2022/11/14 12:47:24;;;;;;;42.83;17.73;;;;;;;6.73;98.37;101037.06;6021926;28;20061;-68
2022/11/14 12:50:30;;;;;;;47.20;18.52;;;;;;;6.69;98.63;101031.19;6022934;28;20039;-68
2022/11/14 12:53:38;;;;;;;39.95;17.98;;;;;;;6.77;98.65;101039.38;6026550;28;20023;-66
2022/11/14 12:56:33;;;;;;;40.22;16.90;;;;;;;6.81;98.16;101035.56;6025247;28;20565;-68
2022/11/14 12:59:36;;;;;;;41.87;17.50;;;;;;;6.67;98.44;101022.56;6025825;28;20042;-67
2022/11/14 13:02:34;;;;;;;38.92;17.25;;;;;;;6.75;98.36;101020.19;6026646;28;20034;-67
2022/11/14 13:05:53;;;;;;;40.80;17.20;;;;;;;6.90;98.29;101010.31;6025234;28;20034;-68
2022/11/14 13:09:27;;;;;;;47.95;18.38;;;;;;;7.00;97.88;101006.03;6024321;28;20038;-67
2022/11/14 13:22:39;;;;;;;45.35;16.35;;;;;;;7.52;95.79;100984.41;6025205;28;20529;-68
2022/11/14 13:25:34;;;;;;;40.60;15.25;;;;;;;7.51;95.35;100966.88;6024855;28;20103;-69
2022/11/14 13:28:35;;;;;;;34.93;15.67;;;;;;;7.62;95.11;100985.34;6025712;28;20027;-67
2022/11/14 13:31:34;;;;;;;36.63;15.93;;;;;;;7.68;94.96;100983.06;6024123;28;20518;-67
2022/11/14 13:34:50;;;;;;;38.40;15.25;;;;;;;7.71;94.69;100984.63;6025466;28;20042;-68
2022/11/14 13:38:20;;;;;;;38.20;16.90;;;;;;;7.69;94.73;100982.09;6023812;28;20101;-67
2022/11/14 13:41:27;;;;;;;39.72;16.02;;;;;;;7.71;94.97;100979.34;6034335;28;20490;-67
2022/11/14 13:44:55;;;;;;;42.67;17.90;;;;;;;7.72;95.25;100971.31;6016826;28;20034;-67
2022/11/14 13:48:29;;;;;;;41.28;18.08;;;;;;;7.77;95.39;100970.97;6025033;28;20034;-69
2022/11/14 13:51:25;;;;;;;33.83;15.70;;;;;;;7.79;95.60;100972.50;6011548;28;20047;-68